Flight Track Log - Related Links

Times and Time Zones

All times are in EDT time to prevent confusion due to time zone crossing. See the N100PM flight status page for this flight to view local times or setup timezone preferences in your user account.

Time Position Orientation Groundspeed Altitude Reporting Facility
EDT Latitude Longitude Course Direction KTS MPH feet Rate Location/Type
Tue 10:53:00 AM 26.1790 -81.7374 52° Northeast  Level FlightAware Approximate
Tue 10:54:00 AM 26.1835 -81.7311 52° Northeast  Level FlightAware Approximate
Tue 10:55:00 AM 26.1881 -81.7249 51° Northeast  Level Estimated
Tue 10:56:00 AM 26.1927 -81.7187 51° Northeast  Level FlightAware Approximate
Tue 10:57:00 AM 26.1972 -81.7124 51° Northeast  Level FlightAware Approximate
Tue 10:58:00 AM 26.2017 -81.7061 51° Northeast  Level FlightAware Approximate
Tue 10:59:00 AM 26.2063 -81.6998 51° Northeast  Level FlightAware Approximate
Tue 11:00:00 AM 26.2108 -81.6935 51° Northeast  Level FlightAware Approximate
Tue 11:01:00 AM 26.2153 -81.6873 51° Northeast  Level FlightAware Approximate
Tue 11:02:00 AM 26.2199 -81.6810 51° Northeast  Level FlightAware Approximate
Tue 11:03:00 AM 26.2244 -81.6747 51° Northeast  Level FlightAware Approximate
Tue 11:04:00 AM 26.2289 -81.6684 51° Northeast  Level FlightAware Approximate
Tue 11:05:00 AM 26.2334 -81.6621 51° Northeast  Level FlightAware Approximate
Tue 11:06:00 AM 26.2380 -81.6559 51° Northeast  Level FlightAware Approximate
Tue 11:07:00 AM 26.2425 -81.6496 51° Northeast  Level FlightAware Approximate
Tue 11:08:00 AM 26.2470 -81.6433 51° Northeast  Level FlightAware Approximate
Tue 11:09:00 AM 26.2515 -81.6370 51° Northeast  Level FlightAware Approximate
Tue 11:10:00 AM 26.2561 -81.6307 51° Northeast  Level FlightAware Approximate
Tue 11:11:00 AM 26.2606 -81.6244 51° Northeast  Level FlightAware Approximate
Tue 11:12:00 AM 26.2651 -81.6181 51° Northeast  Level FlightAware Approximate
Tue 11:13:00 AM 26.2696 -81.6118 51° Northeast  Level FlightAware Approximate
Tue 11:14:00 AM 26.2741 -81.6055 51° Northeast  Level FlightAware Approximate
Tue 11:15:00 AM 26.2787 -81.5993 51° Northeast  Level FlightAware Approximate
Tue 11:16:00 AM 26.2832 -81.5930 51° Northeast  Level FlightAware Approximate
Tue 11:17:00 AM 26.2877 -81.5867 51° Northeast  Level FlightAware Approximate
Tue 11:18:00 AM 26.2922 -81.5804 51° Northeast  Level FlightAware Approximate
Tue 11:19:00 AM 26.2967 -81.5741 51° Northeast  Level FlightAware Approximate
Tue 11:20:00 AM 26.3013 -81.5678 51° Northeast  Level FlightAware Approximate
Tue 11:21:00 AM 26.3058 -81.5615 51° Northeast  Level FlightAware Approximate
Tue 11:22:00 AM 26.3103 -81.5552 51° Northeast  Level FlightAware Approximate
Tue 11:23:00 AM 26.3148 -81.5489 51° Northeast  Level FlightAware Approximate
Tue 11:24:00 AM 26.3193 -81.5426 51° Northeast  Level FlightAware Approximate
Tue 11:25:00 AM 26.3242 -81.5367 61° Northeast  Level Estimated
Tue 11:26:00 AM 26.3282 -81.5300 56° Northeast  Level FlightAware Approximate
Tue 11:27:00 AM 26.3323 -81.5233 56° Northeast  Level FlightAware Approximate
Tue 11:28:00 AM 26.3363 -81.5166 56° Northeast  Level FlightAware Approximate
Tue 11:29:00 AM 26.3413 -81.5108 42° Northeast  Level Estimated
Tue 11:30:00 AM 26.3462 -81.5049 47° Northeast  Level FlightAware Approximate
Tue 11:31:00 AM 26.3512 -81.4989 47° Northeast  Level FlightAware Approximate
Tue 11:32:00 AM 26.3561 -81.4930 47° Northeast  Level FlightAware Approximate
Tue 11:33:00 AM 26.3610 -81.4871 47° Northeast  Level FlightAware Approximate
Tue 11:34:00 AM 26.3659 -81.4812 47° Northeast  Level FlightAware Approximate
Tue 11:35:00 AM 26.3708 -81.4753 47° Northeast  Level FlightAware Approximate
Tue 11:36:00 AM 26.3757 -81.4694 47° Northeast  Level FlightAware Approximate
Tue 11:37:00 AM 26.3807 -81.4634 47° Northeast  Level FlightAware Approximate
Tue 11:38:00 AM 26.3856 -81.4575 47° Northeast  Level FlightAware Approximate
Tue 11:39:00 AM 26.3905 -81.4516 47° Northeast  Level FlightAware Approximate
Tue 11:40:00 AM 26.3954 -81.4457 47° Northeast  Level FlightAware Approximate
Tue 11:41:00 AM 26.4003 -81.4398 47° Northeast  Level FlightAware Approximate
Tue 11:42:00 AM 26.4054 -81.4340 42° Northeast  Level Estimated
Tue 11:43:00 AM 26.4104 -81.4282 42° Northeast  Level Estimated
Tue 11:44:00 AM 26.4154 -81.4224 42° Northeast  Level Estimated
Tue 11:45:00 AM 26.4205 -81.4166 42° Northeast  Level Estimated
Tue 11:46:00 AM 26.4255 -81.4109 42° Northeast  Level Estimated
Tue 11:47:00 AM 26.4333 -81.4000 42° Northeast  Level FlightAware Approximate
Tue 11:48:00 AM 26.4338 -81.4014 42° Northeast  Level Estimated
Tue 11:49:00 AM 26.4333 -81.4000 42° Northeast  Level FlightAware Approximate
Tue 11:50:00 AM 26.4338 -81.4014 42° Northeast  Level Estimated
Tue 11:51:00 AM 26.4333 -81.4000 42° Northeast  Level FlightAware Approximate
Tue 11:52:00 AM 26.4338 -81.4014 42° Northeast  Level Estimated
Tue 11:53:00 AM 26.4333 -81.4000 42° Northeast  Level FlightAware Approximate
Tue 11:54:00 AM 26.4338 -81.4014 42° Northeast  Level Estimated
Tue 11:55:00 AM 26.4333 -81.4000 42° Northeast  Level FlightAware Approximate
Tue 11:56:00 AM 26.4338 -81.4014 42° Northeast  Level Estimated
Tue 11:57:00 AM 26.4333 -81.4000 42° Northeast  Level FlightAware Approximate
Tue 11:58:00 AM 26.4338 -81.4014 42° Northeast  Level Estimated
Tue 11:59:00 AM 26.4333 -81.4000 42° Northeast  Level FlightAware Approximate
Tue 12:00:00 PM 26.4338 -81.4014 42° Northeast  Level Estimated
Tue 12:01:00 PM 26.4333 -81.4000 42° Northeast  Level FlightAware Approximate
Tue 12:02:00 PM 26.4338 -81.4014 42° Northeast  Level Estimated
Tue 12:03:00 PM 26.4333 -81.4000 42° Northeast  Level FlightAware Approximate

Login

Don't have an account? Register now (free) for customized features, flight alerts, and more!